sensor_id;sensor_type;location;lat;lon;timestamp;pressure;altitude;pressure_sealevel;temperature;humidity
29907;BME280;16776;50.958;10.994;2024-03-08T00:00:58;98904.69;;;1.13;84.72
29907;BME280;16776;50.958;10.994;2024-03-08T00:03:25;98899.63;;;1.13;84.80
29907;BME280;16776;50.958;10.994;2024-03-08T00:05:52;98899.59;;;1.11;84.90
29907;BME280;16776;50.958;10.994;2024-03-08T00:08:18;98900.44;;;1.10;84.59
29907;BME280;16776;50.958;10.994;2024-03-08T00:10:46;98893.66;;;1.11;84.12
29907;BME280;16776;50.958;10.994;2024-03-08T00:13:13;98895.31;;;1.07;84.56
29907;BME280;16776;50.958;10.994;2024-03-08T00:15:39;98896.13;;;1.04;84.38
29907;BME280;16776;50.958;10.994;2024-03-08T00:18:06;98891.03;;;1.04;84.61
29907;BME280;16776;50.958;10.994;2024-03-08T00:20:33;98899.47;;;1.03;84.57
29907;BME280;16776;50.958;10.994;2024-03-08T00:22:59;98901.97;;;1.00;84.90
29907;BME280;16776;50.958;10.994;2024-03-08T00:25:26;98902.81;;;0.99;84.60
29907;BME280;16776;50.958;10.994;2024-03-08T00:27:54;98895.19;;;0.99;84.74
29907;BME280;16776;50.958;10.994;2024-03-08T00:30:22;98894.31;;;0.97;84.91
29907;BME280;16776;50.958;10.994;2024-03-08T00:32:50;98893.44;;;0.97;84.66
29907;BME280;16776;50.958;10.994;2024-03-08T00:35:17;98890.88;;;0.95;84.67
29907;BME280;16776;50.958;10.994;2024-03-08T00:37:44;98881.59;;;0.94;84.89
29907;BME280;16776;50.958;10.994;2024-03-08T00:40:12;98847.38;;;0.70;84.80
29907;BME280;16776;50.958;10.994;2024-03-08T00:42:39;98865.31;;;0.83;84.76
29907;BME280;16776;50.958;10.994;2024-03-08T00:45:08;98883.25;;;0.92;84.28
29907;BME280;16776;50.958;10.994;2024-03-08T00:47:35;98876.44;;;0.88;84.60
29907;BME280;16776;50.958;10.994;2024-03-08T00:50:02;98879.69;;;0.84;84.78
29907;BME280;16776;50.958;10.994;2024-03-08T00:52:29;98878.84;;;0.82;84.19
29907;BME280;16776;50.958;10.994;2024-03-08T00:54:56;98869.47;;;0.78;84.41
29907;BME280;16776;50.958;10.994;2024-03-08T00:57:23;98876.19;;;0.76;84.47
29907;BME280;16776;50.958;10.994;2024-03-08T00:59:49;98868.53;;;0.73;84.41
29907;BME280;16776;50.958;10.994;2024-03-08T01:02:17;98869.38;;;0.72;84.11
29907;BME280;16776;50.958;10.994;2024-03-08T01:04:44;98865.91;;;0.67;84.38
29907;BME280;16776;50.958;10.994;2024-03-08T01:07:12;98859.91;;;0.63;84.38
29907;BME280;16776;50.958;10.994;2024-03-08T01:09:39;98848.88;;;0.60;84.56
29907;BME280;16776;50.958;10.994;2024-03-08T01:12:05;98851.34;;;0.57;84.48
29907;BME280;16776;50.958;10.994;2024-03-08T01:14:33;98847.09;;;0.54;84.43
29907;BME280;16776;50.958;10.994;2024-03-08T01:17:00;98847.91;;;0.50;84.36
29907;BME280;16776;50.958;10.994;2024-03-08T01:19:27;98843.66;;;0.49;84.63
29907;BME280;16776;50.958;10.994;2024-03-08T01:21:54;98845.25;;;0.46;84.57
29907;BME280;16776;50.958;10.994;2024-03-08T01:24:22;98842.69;;;0.43;84.68
29907;BME280;16776;50.958;10.994;2024-03-08T01:26:48;98838.41;;;0.40;84.61
29907;BME280;16776;50.958;10.994;2024-03-08T01:29:15;98840.06;;;0.38;84.69
29907;BME280;16776;50.958;10.994;2024-03-08T01:31:41;98840.91;;;0.37;84.76
29907;BME280;16776;50.958;10.994;2024-03-08T01:34:08;98833.28;;;0.36;84.97
29907;BME280;16776;50.958;10.994;2024-03-08T01:36:37;98830.75;;;0.36;85.14
29907;BME280;16776;50.958;10.994;2024-03-08T01:39:03;98830.72;;;0.34;84.93
29907;BME280;16776;50.958;10.994;2024-03-08T01:41:33;98823.94;;;0.33;84.87
29907;BME280;16776;50.958;10.994;2024-03-08T01:44:00;98820.53;;;0.33;84.90
29907;BME280;16776;50.958;10.994;2024-03-08T01:46:28;98820.53;;;0.33;85.10
29907;BME280;16776;50.958;10.994;2024-03-08T01:48:55;98820.50;;;0.30;84.85
29907;BME280;16776;50.958;10.994;2024-03-08T01:51:22;98811.19;;;0.29;84.75
29907;BME280;16776;50.958;10.994;2024-03-08T01:53:51;98814.63;;;0.31;84.84
29907;BME280;16776;50.958;10.994;2024-03-08T01:56:18;98807.78;;;0.27;84.90
29907;BME280;16776;50.958;10.994;2024-03-08T01:58:45;98806.06;;;0.25;84.63
29907;BME280;16776;50.958;10.994;2024-03-08T02:01:12;98801.00;;;0.24;85.02
29907;BME280;16776;50.958;10.994;2024-03-08T02:03:40;98793.41;;;0.24;84.81
29907;BME280;16776;50.958;10.994;2024-03-08T02:06:09;98799.28;;;0.23;84.81
29907;BME280;16776;50.958;10.994;2024-03-08T02:08:36;98795.00;;;0.20;84.77
29907;BME280;16776;50.958;10.994;2024-03-08T02:11:04;98793.34;;;0.21;84.51
29907;BME280;16776;50.958;10.994;2024-03-08T02:13:31;98792.44;;;0.17;84.69
29907;BME280;16776;50.958;10.994;2024-03-08T02:15:59;98789.00;;;0.14;84.77
29907;BME280;16776;50.958;10.994;2024-03-08T02:18:26;98794.88;;;0.11;84.78
29907;BME280;16776;50.958;10.994;2024-03-08T02:20:55;98786.41;;;0.11;85.05
29907;BME280;16776;50.958;10.994;2024-03-08T02:23:23;98791.38;;;0.06;84.78
29907;BME280;16776;50.958;10.994;2024-03-08T02:25:50;98782.94;;;0.04;84.68
29907;BME280;16776;50.958;10.994;2024-03-08T02:28:17;98785.44;;;0.03;84.95
29907;BME280;16776;50.958;10.994;2024-03-08T02:30:44;98783.63;;;-0.03;84.76
29907;BME280;16776;50.958;10.994;2024-03-08T02:33:13;98782.00;;;-0.01;84.56
29907;BME280;16776;50.958;10.994;2024-03-08T02:35:42;98781.06;;;-0.04;84.74
29907;BME280;16776;50.958;10.994;2024-03-08T02:38:12;98782.78;;;-0.03;85.03
29907;BME280;16776;50.958;10.994;2024-03-08T02:40:41;98775.13;;;-0.06;85.22
29907;BME280;16776;50.958;10.994;2024-03-08T02:43:08;98786.09;;;-0.07;85.03
29907;BME280;16776;50.958;10.994;2024-03-08T02:45:35;98771.69;;;-0.10;85.15
29907;BME280;16776;50.958;10.994;2024-03-08T02:48:02;98769.13;;;-0.11;84.66
29907;BME280;16776;50.958;10.994;2024-03-08T02:50:29;98764.03;;;-0.13;85.20
29907;BME280;16776;50.958;10.994;2024-03-08T02:52:55;98760.66;;;-0.15;85.16
29907;BME280;16776;50.958;10.994;2024-03-08T02:55:23;98760.66;;;-0.15;85.22
29907;BME280;16776;50.958;10.994;2024-03-08T02:57:51;98757.22;;;-0.17;84.95
29907;BME280;16776;50.958;10.994;2024-03-08T03:00:18;98753.78;;;-0.21;85.23
29907;BME280;16776;50.958;10.994;2024-03-08T03:02:45;98752.06;;;-0.23;84.82
29907;BME280;16776;50.958;10.994;2024-03-08T03:05:11;98751.19;;;-0.24;84.94
29907;BME280;16776;50.958;10.994;2024-03-08T03:07:39;98751.16;;;-0.27;85.05
29907;BME280;16776;50.958;10.994;2024-03-08T03:10:07;98750.31;;;-0.27;85.45
29907;BME280;16776;50.958;10.994;2024-03-08T03:12:35;98753.66;;;-0.28;85.50
29907;BME280;16776;50.958;10.994;2024-03-08T03:15:01;98748.53;;;-0.31;84.91
29907;BME280;16776;50.958;10.994;2024-03-08T03:17:28;98745.13;;;-0.33;85.13
29907;BME280;16776;50.958;10.994;2024-03-08T03:19:55;98724.63;;;-0.47;85.33
29907;BME280;16776;50.958;10.994;2024-03-08T03:22:22;98748.41;;;-0.37;85.10
29907;BME280;16776;50.958;10.994;2024-03-08T03:24:48;98747.53;;;-0.39;84.97
29907;BME280;16776;50.958;10.994;2024-03-08T03:27:17;98738.25;;;-0.40;84.88
29907;BME280;16776;50.958;10.994;2024-03-08T03:29:44;98743.31;;;-0.40;85.35
29907;BME280;16776;50.958;10.994;2024-03-08T03:32:11;98744.94;;;-0.42;85.01
29907;BME280;16776;50.958;10.994;2024-03-08T03:34:38;98739.00;;;-0.44;84.91
29907;BME280;16776;50.958;10.994;2024-03-08T03:37:05;98741.53;;;-0.44;84.96
29907;BME280;16776;50.958;10.994;2024-03-08T03:39:32;98744.03;;;-0.46;85.12
29907;BME280;16776;50.958;10.994;2024-03-08T03:41:59;98743.16;;;-0.48;85.05
29907;BME280;16776;50.958;10.994;2024-03-08T03:44:27;98726.22;;;-0.50;84.83
29907;BME280;16776;50.958;10.994;2024-03-08T03:46:55;98735.53;;;-0.49;84.75
29907;BME280;16776;50.958;10.994;2024-03-08T03:49:21;98739.69;;;-0.53;85.38
29907;BME280;16776;50.958;10.994;2024-03-08T03:51:49;98737.94;;;-0.56;85.15
29907;BME280;16776;50.958;10.994;2024-03-08T03:54:15;98733.72;;;-0.57;84.93
29907;BME280;16776;50.958;10.994;2024-03-08T03:56:42;98730.31;;;-0.59;85.24
29907;BME280;16776;50.958;10.994;2024-03-08T03:59:08;98731.94;;;-0.61;85.25
29907;BME280;16776;50.958;10.994;2024-03-08T04:01:35;98731.91;;;-0.62;85.46
29907;BME280;16776;50.958;10.994;2024-03-08T04:04:03;98729.44;;;-0.61;85.15
29907;BME280;16776;50.958;10.994;2024-03-08T04:06:30;98721.75;;;-0.64;85.25
29907;BME280;16776;50.958;10.994;2024-03-08T04:08:57;98726.81;;;-0.65;85.33
29907;BME280;16776;50.958;10.994;2024-03-08T04:11:23;98713.28;;;-0.67;84.83
29907;BME280;16776;50.958;10.994;2024-03-08T04:13:50;98719.13;;;-0.70;85.03
29907;BME280;16776;50.958;10.994;2024-03-08T04:16:17;98721.63;;;-0.71;85.47
29907;BME280;16776;50.958;10.994;2024-03-08T04:18:44;98718.22;;;-0.73;85.21
29907;BME280;16776;50.958;10.994;2024-03-08T04:21:12;98719.88;;;-0.74;85.18
29907;BME280;16776;50.958;10.994;2024-03-08T04:23:38;98717.28;;;-0.77;85.04
29907;BME280;16776;50.958;10.994;2024-03-08T04:26:05;98726.53;;;-0.77;85.31
29907;BME280;16776;50.958;10.994;2024-03-08T04:28:32;98718.09;;;-0.79;85.34
29907;BME280;16776;50.958;10.994;2024-03-08T04:30:59;98713.84;;;-0.80;84.95
29907;BME280;16776;50.958;10.994;2024-03-08T04:33:26;98713.00;;;-0.81;85.11
29907;BME280;16776;50.958;10.994;2024-03-08T04:35:53;98712.09;;;-0.83;85.33
29907;BME280;16776;50.958;10.994;2024-03-08T04:38:21;98709.63;;;-0.81;85.47
29907;BME280;16776;50.958;10.994;2024-03-08T04:40:48;98706.19;;;-0.85;85.44
29907;BME280;16776;50.958;10.994;2024-03-08T04:43:15;98701.94;;;-0.86;85.05
29907;BME280;16776;50.958;10.994;2024-03-08T04:45:43;98701.09;;;-0.86;85.10
29907;BME280;16776;50.958;10.994;2024-03-08T04:48:10;98704.44;;;-0.87;85.44
29907;BME280;16776;50.958;10.994;2024-03-08T04:50:37;98701.88;;;-0.89;85.84
29907;BME280;16776;50.958;10.994;2024-03-08T04:53:03;98702.69;;;-0.90;85.75
29907;BME280;16776;50.958;10.994;2024-03-08T04:55:34;98710.28;;;-0.90;85.82
29907;BME280;16776;50.958;10.994;2024-03-08T04:58:03;98702.66;;;-0.93;85.33
29907;BME280;16776;50.958;10.994;2024-03-08T05:00:31;98702.59;;;-0.94;85.31
29907;BME280;16776;50.958;10.994;2024-03-08T05:02:57;98707.63;;;-0.96;85.71
29907;BME280;16776;50.958;10.994;2024-03-08T05:05:24;98703.41;;;-0.97;85.96
29907;BME280;16776;50.958;10.994;2024-03-08T05:07:53;98701.72;;;-0.98;85.52
29907;BME280;16776;50.958;10.994;2024-03-08T05:10:20;98683.84;;;-1.06;85.77
29907;BME280;16776;50.958;10.994;2024-03-08T05:12:48;98705.06;;;-0.99;86.00
29907;BME280;16776;50.958;10.994;2024-03-08T05:15:15;98694.88;;;-1.02;85.24
29907;BME280;16776;50.958;10.994;2024-03-08T05:17:41;98698.22;;;-1.03;85.67
29907;BME280;16776;50.958;10.994;2024-03-08T05:20:08;98703.25;;;-1.05;84.93
29907;BME280;16776;50.958;10.994;2024-03-08T05:22:37;98702.38;;;-1.07;85.48
29907;BME280;16776;50.958;10.994;2024-03-08T05:25:05;98698.09;;;-1.09;84.93
29907;BME280;16776;50.958;10.994;2024-03-08T05:27:33;98698.91;;;-1.12;84.87
29907;BME280;16776;50.958;10.994;2024-03-08T05:30:01;98697.22;;;-1.11;86.71
29907;BME280;16776;50.958;10.994;2024-03-08T05:32:29;98702.56;;;-0.98;90.40
29907;BME280;16776;50.958;10.994;2024-03-08T05:34:55;98698.09;;;-0.67;92.27
29907;BME280;16776;50.958;10.994;2024-03-08T05:37:22;98692.81;;;-0.34;91.90
29907;BME280;16776;50.958;10.994;2024-03-08T05:39:48;98702.56;;;-0.07;90.41
29907;BME280;16776;50.958;10.994;2024-03-08T05:42:15;98696.91;;;0.09;88.98
29907;BME280;16776;50.958;10.994;2024-03-08T05:44:42;98683.56;;;0.17;87.80
29907;BME280;16776;50.958;10.994;2024-03-08T05:47:10;98690.38;;;0.23;87.07
29907;BME280;16776;50.958;10.994;2024-03-08T05:49:36;98693.72;;;0.20;86.66
29907;BME280;16776;50.958;10.994;2024-03-08T05:52:04;98696.16;;;0.14;86.22
29907;BME280;16776;50.958;10.994;2024-03-08T05:54:31;98697.72;;;0.08;85.93
29907;BME280;16776;50.958;10.994;2024-03-08T05:56:58;98704.34;;;-0.00;85.75
29907;BME280;16776;50.958;10.994;2024-03-08T05:59:25;98693.25;;;-0.08;85.72
29907;BME280;16776;50.958;10.994;2024-03-08T06:01:52;98697.34;;;-0.17;85.67
29907;BME280;16776;50.958;10.994;2024-03-08T06:04:20;98706.56;;;-0.20;85.71
29907;BME280;16776;50.958;10.994;2024-03-08T06:06:46;98698.84;;;-0.26;85.79
29907;BME280;16776;50.958;10.994;2024-03-08T06:09:13;98702.16;;;-0.30;86.11
29907;BME280;16776;50.958;10.994;2024-03-08T06:11:42;98700.41;;;-0.33;86.39
29907;BME280;16776;50.958;10.994;2024-03-08T06:14:09;98697.03;;;-0.35;86.14
29907;BME280;16776;50.958;10.994;2024-03-08T06:16:35;98702.94;;;-0.34;86.12
29907;BME280;16776;50.958;10.994;2024-03-08T06:19:03;98697.06;;;-0.33;86.57
29907;BME280;16776;50.958;10.994;2024-03-08T06:21:32;98699.59;;;-0.32;86.54
29907;BME280;16776;50.958;10.994;2024-03-08T06:23:58;98696.19;;;-0.32;86.54
29907;BME280;16776;50.958;10.994;2024-03-08T06:26:25;98701.34;;;-0.29;86.89
29907;BME280;16776;50.958;10.994;2024-03-08T06:28:53;98695.50;;;-0.27;87.06
29907;BME280;16776;50.958;10.994;2024-03-08T06:31:20;98700.63;;;-0.22;87.01
29907;BME280;16776;50.958;10.994;2024-03-08T06:33:47;98687.94;;;-0.24;87.72
29907;BME280;16776;50.958;10.994;2024-03-08T06:36:16;98696.59;;;-0.11;87.25
29907;BME280;16776;50.958;10.994;2024-03-08T06:38:45;98698.34;;;-0.05;87.50
29907;BME280;16776;50.958;10.994;2024-03-08T06:41:12;98696.75;;;-0.00;87.48
29907;BME280;16776;50.958;10.994;2024-03-08T06:43:41;98693.50;;;0.05;87.34
29907;BME280;16776;50.958;10.994;2024-03-08T06:46:07;98695.25;;;0.12;87.53
29907;BME280;16776;50.958;10.994;2024-03-08T06:48:34;98701.28;;;0.19;87.92
29907;BME280;16776;50.958;10.994;2024-03-08T06:51:02;98694.66;;;0.27;88.17
29907;BME280;16776;50.958;10.994;2024-03-08T06:53:29;98699.03;;;0.36;88.15
29907;BME280;16776;50.958;10.994;2024-03-08T06:55:57;98695.78;;;0.46;88.52
29907;BME280;16776;50.958;10.994;2024-03-08T06:58:24;98690.88;;;0.55;88.43
29907;BME280;16776;50.958;10.994;2024-03-08T07:00:50;98689.28;;;0.63;88.95
29907;BME280;16776;50.958;10.994;2024-03-08T07:03:17;98688.59;;;0.75;88.56
29907;BME280;16776;50.958;10.994;2024-03-08T07:05:44;98682.81;;;0.85;88.34
29907;BME280;16776;50.958;10.994;2024-03-08T07:08:11;98669.38;;;0.87;88.58
29907;BME280;16776;50.958;10.994;2024-03-08T07:10:39;98681.44;;;1.07;88.58
29907;BME280;16776;50.958;10.994;2024-03-08T07:13:08;98680.75;;;1.20;88.44
29907;BME280;16776;50.958;10.994;2024-03-08T07:15:35;98683.38;;;1.29;89.12
29907;BME280;16776;50.958;10.994;2024-03-08T07:18:02;98682.66;;;1.39;88.15
29907;BME280;16776;50.958;10.994;2024-03-08T07:20:29;98675.16;;;1.51;88.40
29907;BME280;16776;50.958;10.994;2024-03-08T07:22:55;98673.59;;;1.64;89.44
29907;BME280;16776;50.958;10.994;2024-03-08T07:25:22;98677.09;;;1.76;89.02
29907;BME280;16776;50.958;10.994;2024-03-08T07:27:50;98673.88;;;1.91;88.68
29907;BME280;16776;50.958;10.994;2024-03-08T07:30:19;98667.19;;;2.07;88.82
29907;BME280;16776;50.958;10.994;2024-03-08T07:33:04;98669.88;;;2.22;89.24
29907;BME280;16776;50.958;10.994;2024-03-08T07:35:31;98667.41;;;2.37;89.65
29907;BME280;16776;50.958;10.994;2024-03-08T07:37:58;98659.03;;;2.52;88.98
29907;BME280;16776;50.958;10.994;2024-03-08T07:40:25;98654.06;;;2.67;89.06
29907;BME280;16776;50.958;10.994;2024-03-08T07:42:52;98659.19;;;2.82;89.43
29907;BME280;16776;50.958;10.994;2024-03-08T07:45:20;98654.19;;;2.96;88.68
29907;BME280;16776;50.958;10.994;2024-03-08T07:47:47;98650.84;;;3.09;89.60
29907;BME280;16776;50.958;10.994;2024-03-08T07:50:14;98647.50;;;3.25;88.45
29907;BME280;16776;50.958;10.994;2024-03-08T07:52:41;98644.16;;;3.40;88.41
29907;BME280;16776;50.958;10.994;2024-03-08T07:55:08;98642.50;;;3.50;89.02
29907;BME280;16776;50.958;10.994;2024-03-08T07:57:35;98643.34;;;3.65;89.23
29907;BME280;16776;50.958;10.994;2024-03-08T08:00:04;98632.34;;;3.80;88.45
29907;BME280;16776;50.958;10.994;2024-03-08T08:02:34;98634.91;;;3.95;88.42
29907;BME280;16776;50.958;10.994;2024-03-08T08:05:00;98641.69;;;4.08;89.10
29907;BME280;16776;50.958;10.994;2024-03-08T08:07:27;98636.56;;;4.22;89.03
29907;BME280;16776;50.958;10.994;2024-03-08T08:09:53;98628.06;;;4.34;88.49
29907;BME280;16776;50.958;10.994;2024-03-08T08:12:20;98629.72;;;4.48;88.83
29907;BME280;16776;50.958;10.994;2024-03-08T08:14:47;98628.84;;;4.63;88.93
29907;BME280;16776;50.958;10.994;2024-03-08T08:17:13;98622.00;;;4.77;88.96
29907;BME280;16776;50.958;10.994;2024-03-08T08:19:42;98624.47;;;4.94;88.51
29907;BME280;16776;50.958;10.994;2024-03-08T08:22:08;98616.75;;;5.06;88.99
29907;BME280;16776;50.958;10.994;2024-03-08T08:24:35;98617.59;;;5.17;88.77
29907;BME280;16776;50.958;10.994;2024-03-08T08:27:02;98624.28;;;5.38;88.88
29907;BME280;16776;50.958;10.994;2024-03-08T08:29:29;98620.78;;;5.53;88.78
29907;BME280;16776;50.958;10.994;2024-03-08T08:31:57;98614.72;;;5.69;88.93
29907;BME280;16776;50.958;10.994;2024-03-08T08:34:24;98617.19;;;5.79;88.09
29907;BME280;16776;50.958;10.994;2024-03-08T08:36:53;98609.44;;;5.90;88.17
29907;BME280;16776;50.958;10.994;2024-03-08T08:39:19;98605.09;;;5.98;88.05
29907;BME280;16776;50.958;10.994;2024-03-08T08:41:48;98592.25;;;6.07;88.03
29907;BME280;16776;50.958;10.994;2024-03-08T08:44:14;98594.72;;;6.16;88.20
29907;BME280;16776;50.958;10.994;2024-03-08T08:46:41;98600.63;;;6.23;87.76
29907;BME280;16776;50.958;10.994;2024-03-08T08:49:07;98601.41;;;6.31;87.48
29907;BME280;16776;50.958;10.994;2024-03-08T08:51:35;98590.25;;;6.38;87.76
29907;BME280;16776;50.958;10.994;2024-03-08T08:54:03;98586.75;;;6.45;87.42
29907;BME280;16776;50.958;10.994;2024-03-08T08:56:31;98586.72;;;6.48;87.50
29907;BME280;16776;50.958;10.994;2024-03-08T08:58:58;98589.19;;;6.54;87.24
29907;BME280;16776;50.958;10.994;2024-03-08T09:01:24;98580.59;;;6.60;87.43
29907;BME280;16776;50.958;10.994;2024-03-08T09:03:51;98579.66;;;6.67;87.43
29907;BME280;16776;50.958;10.994;2024-03-08T09:06:19;98574.50;;;6.75;87.88
29907;BME280;16776;50.958;10.994;2024-03-08T09:08:45;98573.53;;;6.83;86.90
29907;BME280;16776;50.958;10.994;2024-03-08T09:11:13;98572.53;;;6.93;86.86
29907;BME280;16776;50.958;10.994;2024-03-08T09:13:40;98566.50;;;6.97;87.31
29907;BME280;16776;50.958;10.994;2024-03-08T09:16:07;98572.44;;;7.02;87.40
29907;BME280;16776;50.958;10.994;2024-03-08T09:18:35;98546.75;;;7.07;86.54
29907;BME280;16776;50.958;10.994;2024-03-08T09:21:02;98551.81;;;7.13;86.92
29907;BME280;16776;50.958;10.994;2024-03-08T09:23:30;98550.00;;;7.20;87.33
29907;BME280;16776;50.958;10.994;2024-03-08T09:25:56;98546.50;;;7.24;86.10
29907;BME280;16776;50.958;10.994;2024-03-08T09:28:25;98543.84;;;7.30;87.10
29907;BME280;16776;50.958;10.994;2024-03-08T09:30:52;98536.19;;;7.30;86.49
29907;BME280;16776;50.958;10.994;2024-03-08T09:33:20;98537.78;;;7.35;86.42
29907;BME280;16776;50.958;10.994;2024-03-08T09:35:47;98524.03;;;7.42;87.22
29907;BME280;16776;50.958;10.994;2024-03-08T09:38:14;98520.47;;;7.53;86.21
29907;BME280;16776;50.958;10.994;2024-03-08T09:40:41;98516.06;;;7.61;86.45
29907;BME280;16776;50.958;10.994;2024-03-08T09:43:08;98514.25;;;7.67;85.30
29907;BME280;16776;50.958;10.994;2024-03-08T09:45:40;98514.91;;;7.78;86.71
29907;BME280;16776;50.958;10.994;2024-03-08T09:48:10;98505.38;;;7.87;86.03
29907;BME280;16776;50.958;10.994;2024-03-08T09:50:38;98505.31;;;7.88;86.72
29907;BME280;16776;50.958;10.994;2024-03-08T09:53:06;98505.91;;;8.02;86.43
29907;BME280;16776;50.958;10.994;2024-03-08T09:55:34;98507.41;;;8.15;85.81
29907;BME280;16776;50.958;10.994;2024-03-08T09:58:02;98504.69;;;8.24;85.93
29907;BME280;16776;50.958;10.994;2024-03-08T10:01:03;98507.00;;;8.37;86.31
29907;BME280;16776;50.958;10.994;2024-03-08T10:03:30;98500.94;;;8.39;85.59
29907;BME280;16776;50.958;10.994;2024-03-08T10:05:57;98492.38;;;8.42;85.77
29907;BME280;16776;50.958;10.994;2024-03-08T10:08:25;98487.97;;;8.47;85.56
29907;BME280;16776;50.958;10.994;2024-03-08T10:10:52;98489.53;;;8.54;85.87
29907;BME280;16776;50.958;10.994;2024-03-08T10:13:19;98479.97;;;8.62;85.71
29907;BME280;16776;50.958;10.994;2024-03-08T10:15:45;98479.00;;;8.68;84.80
29907;BME280;16776;50.958;10.994;2024-03-08T10:18:13;98471.22;;;8.71;84.32
29907;BME280;16776;50.958;10.994;2024-03-08T10:20:40;98472.91;;;8.70;85.28
29907;BME280;16776;50.958;10.994;2024-03-08T10:23:08;98470.34;;;8.70;84.35
29907;BME280;16776;50.958;10.994;2024-03-08T10:25:35;98465.22;;;8.70;84.87
29907;BME280;16776;50.958;10.994;2024-03-08T10:28:03;98465.13;;;8.76;84.72
29907;BME280;16776;50.958;10.994;2024-03-08T10:30:30;98452.19;;;8.79;83.63
29907;BME280;16776;50.958;10.994;2024-03-08T10:32:57;98458.94;;;8.83;84.08
29907;BME280;16776;50.958;10.994;2024-03-08T10:35:25;98452.16;;;8.81;82.75
29907;BME280;16776;50.958;10.994;2024-03-08T10:37:52;98459.13;;;8.76;80.80
29907;BME280;16776;50.958;10.994;2024-03-08T10:40:25;98450.75;;;8.68;80.79
29907;BME280;16776;50.958;10.994;2024-03-08T10:42:54;98452.66;;;8.58;81.49
29907;BME280;16776;50.958;10.994;2024-03-08T10:45:29;98447.56;;;8.56;81.83
29907;BME280;16776;50.958;10.994;2024-03-08T10:48:15;98442.38;;;8.59;80.92
29907;BME280;16776;50.958;10.994;2024-03-08T10:50:49;98452.84;;;8.50;79.79
29907;BME280;16776;50.958;10.994;2024-03-08T10:53:17;98449.56;;;8.44;78.85
29907;BME280;16776;50.958;10.994;2024-03-08T10:55:46;98448.03;;;8.34;78.04
29907;BME280;16776;50.958;10.994;2024-03-08T10:58:13;98443.06;;;8.26;79.47
29907;BME280;16776;50.958;10.994;2024-03-08T11:00:41;98443.13;;;8.23;80.33
29907;BME280;16776;50.958;10.994;2024-03-08T11:03:07;98444.84;;;8.22;79.47
29907;BME280;16776;50.958;10.994;2024-03-08T11:05:55;98441.38;;;8.25;78.70
29907;BME280;16776;50.958;10.994;2024-03-08T11:08:23;98446.63;;;8.19;77.54
29907;BME280;16776;50.958;10.994;2024-03-08T11:10:50;98435.66;;;8.11;78.71
29907;BME280;16776;50.958;10.994;2024-03-08T11:13:33;98428.00;;;8.09;79.11
29907;BME280;16776;50.958;10.994;2024-03-08T11:16:00;98420.53;;;7.99;79.43
29907;BME280;16776;50.958;10.994;2024-03-08T11:18:32;98415.28;;;8.05;80.78
29907;BME280;16776;50.958;10.994;2024-03-08T11:21:04;98414.19;;;8.18;80.45
29907;BME280;16776;50.958;10.994;2024-03-08T11:23:32;98413.22;;;8.23;80.70
29907;BME280;16776;50.958;10.994;2024-03-08T11:25:58;98411.25;;;8.35;81.24
29907;BME280;16776;50.958;10.994;2024-03-08T11:28:25;98405.00;;;8.46;81.40
29907;BME280;16776;50.958;10.994;2024-03-08T11:31:23;98392.59;;;8.67;81.79
29907;BME280;16776;50.958;10.994;2024-03-08T11:33:51;98390.84;;;8.67;81.02
29907;BME280;16776;50.958;10.994;2024-03-08T11:36:22;98395.69;;;8.81;80.93
29907;BME280;16776;50.958;10.994;2024-03-08T11:38:50;98387.94;;;8.82;80.64
29907;BME280;16776;50.958;10.994;2024-03-08T11:41:18;98388.53;;;8.93;80.22
29907;BME280;16776;50.958;10.994;2024-03-08T11:43:46;98378.94;;;9.01;79.99
29907;BME280;16776;50.958;10.994;2024-03-08T11:46:14;98373.66;;;9.06;80.77
29907;BME280;16776;50.958;10.994;2024-03-08T11:48:41;98370.09;;;9.12;80.99
29907;BME280;16776;50.958;10.994;2024-03-08T11:51:08;98363.97;;;9.17;80.48
29907;BME280;16776;50.958;10.994;2024-03-08T11:53:38;98358.59;;;9.26;81.01
29907;BME280;16776;50.958;10.994;2024-03-08T11:56:07;98366.19;;;9.31;79.97
29907;BME280;16776;50.958;10.994;2024-03-08T11:58:34;98362.00;;;9.27;80.06
29907;BME280;16776;50.958;10.994;2024-03-08T12:01:03;98360.06;;;9.35;79.63
29907;BME280;16776;50.958;10.994;2024-03-08T12:03:31;98357.50;;;9.35;80.05
29907;BME280;16776;50.958;10.994;2024-03-08T12:05:59;98350.63;;;9.35;80.17
29907;BME280;16776;50.958;10.994;2024-03-08T12:08:26;98342.91;;;9.35;80.07
29907;BME280;16776;50.958;10.994;2024-03-08T12:10:54;98347.19;;;9.38;80.50
29907;BME280;16776;50.958;10.994;2024-03-08T12:13:25;98340.34;;;9.35;80.18
29907;BME280;16776;50.958;10.994;2024-03-08T12:15:55;98332.59;;;9.38;80.21
29907;BME280;16776;50.958;10.994;2024-03-08T12:18:22;98332.50;;;9.41;80.39
29907;BME280;16776;50.958;10.994;2024-03-08T12:20:48;98323.84;;;9.46;80.28
29907;BME280;16776;50.958;10.994;2024-03-08T12:23:15;98325.53;;;9.47;80.32
29907;BME280;16776;50.958;10.994;2024-03-08T12:25:42;98320.31;;;9.50;80.22
29907;BME280;16776;50.958;10.994;2024-03-08T12:28:12;98322.66;;;9.57;80.37
29907;BME280;16776;50.958;10.994;2024-03-08T12:30:45;98305.41;;;9.61;80.32
29907;BME280;16776;50.958;10.994;2024-03-08T12:33:12;98260.88;;;9.28;80.53
29907;BME280;16776;50.958;10.994;2024-03-08T12:35:39;98313.91;;;9.64;80.34
29907;BME280;16776;50.958;10.994;2024-03-08T12:38:06;98305.22;;;9.68;79.64
29907;BME280;16776;50.958;10.994;2024-03-08T12:40:33;98300.06;;;9.68;79.95
29907;BME280;16776;50.958;10.994;2024-03-08T12:43:05;98298.34;;;9.69;80.34
29907;BME280;16776;50.958;10.994;2024-03-08T12:45:33;98304.19;;;9.74;80.46
29907;BME280;16776;50.958;10.994;2024-03-08T12:48:00;98291.28;;;9.75;80.32
29907;BME280;16776;50.958;10.994;2024-03-08T12:50:28;98291.13;;;9.81;80.21
29907;BME280;16776;50.958;10.994;2024-03-08T12:52:55;98281.56;;;9.85;80.04
29907;BME280;16776;50.958;10.994;2024-03-08T12:55:22;98278.13;;;9.86;79.96
29907;BME280;16776;50.958;10.994;2024-03-08T12:57:49;98262.66;;;9.88;79.68
29907;BME280;16776;50.958;10.994;2024-03-08T13:00:18;98268.66;;;9.87;79.07